sensor_id;sensor_type;location;lat;lon;timestamp;pressure;altitude;pressure_sealevel;temperature;humidity
50652;BME280;66928;52.086;5.240;2023-01-25T06:27:13;103494.0;;;2.31;72.19
50652;BME280;66928;52.086;5.240;2023-01-25T06:28:49;103495.0;;;2.25;72.16
50652;BME280;66928;52.086;5.240;2023-01-25T06:30:26;103497.0;;;2.21;72.11
50652;BME280;66928;52.086;5.240;2023-01-25T06:32:02;103495.0;;;2.23;72.16
50652;BME280;66928;52.086;5.240;2023-01-25T06:35:16;103501.0;;;2.33;71.66
50652;BME280;66928;52.086;5.240;2023-01-25T06:36:52;103508.0;;;2.25;71.56
50652;BME280;66928;52.086;5.240;2023-01-25T06:38:28;103505.0;;;2.02;72.33
50652;BME280;66928;52.086;5.240;2023-01-25T06:41:46;103501.0;;;2.5;71.42
50652;BME280;66928;52.086;5.240;2023-01-25T06:43:22;103500.0;;;2.42;71.58
50652;BME280;66928;52.086;5.240;2023-01-25T06:44:58;103495.0;;;2.34;71.95
50652;BME280;66928;52.086;5.240;2023-01-25T06:48:10;103489.00000000001;;;2.29;72.44
50652;BME280;66928;52.086;5.240;2023-01-25T06:49:46;103488.00000000001;;;2.25;72.72
50652;BME280;66928;52.086;5.240;2023-01-25T06:51:23;103490.00000000001;;;2.04;72.94
50652;BME280;66928;52.086;5.240;2023-01-25T06:52:59;103492.0;;;2.09;73.02
50652;BME280;66928;52.086;5.240;2023-01-25T06:56:12;103495.0;;;2.05;73.25
50652;BME280;66928;52.086;5.240;2023-01-25T06:57:50;103493.0;;;2.07;73.38
50652;BME280;66928;52.086;5.240;2023-01-25T06:59:26;103492.0;;;2.15;72.91
50652;BME280;66928;52.086;5.240;2023-01-25T07:02:42;103492.0;;;2.31;72.55
50652;BME280;66928;52.086;5.240;2023-01-25T07:04:18;103492.0;;;2.39;72.3
50652;BME280;66928;52.086;5.240;2023-01-25T07:05:58;103488.00000000001;;;2.33;72.5
50652;BME280;66928;52.086;5.240;2023-01-25T07:07:34;103484.99999999999;;;2.32;72.8
50652;BME280;66928;52.086;5.240;2023-01-25T07:10:53;103491.00000000001;;;1.98;72.74
50652;BME280;66928;52.086;5.240;2023-01-25T07:12:30;103482.0;;;1.95;72.7
50652;BME280;66928;52.086;5.240;2023-01-25T07:14:06;103475.0;;;2.23;72.02
50652;BME280;66928;52.086;5.240;2023-01-25T07:17:18;103472.0;;;2.21;71.91
50652;BME280;66928;52.086;5.240;2023-01-25T07:18:54;103472.0;;;2.44;71.39
50652;BME280;66928;52.086;5.240;2023-01-25T07:20:30;103470.0;;;2.32;71.75
50652;BME280;66928;52.086;5.240;2023-01-25T07:23:43;103471.0;;;2.44;71.41
50652;BME280;66928;52.086;5.240;2023-01-25T07:25:19;103470.0;;;2.48;71.42
50652;BME280;66928;52.086;5.240;2023-01-25T07:26:55;103470.0;;;2.29;72.22
50652;BME280;66928;52.086;5.240;2023-01-25T07:28:31;103471.0;;;2.21;72.69
50652;BME280;66928;52.086;5.240;2023-01-25T07:31:46;103468.0;;;2.21;72.63
50652;BME280;66928;52.086;5.240;2023-01-25T07:33:23;103467.0;;;2.34;72.78
50652;BME280;66928;52.086;5.240;2023-01-25T07:34:59;103470.0;;;2.52;72.08
50652;BME280;66928;52.086;5.240;2023-01-25T07:38:12;103471.0;;;2.52;72.31
50652;BME280;66928;52.086;5.240;2023-01-25T07:39:49;103465.00000000001;;;2.58;72.19
50652;BME280;66928;52.086;5.240;2023-01-25T07:41:26;103464.00000000001;;;2.59;72.39
50652;BME280;66928;52.086;5.240;2023-01-25T07:44:38;103463.00000000001;;;2.6;71.91
50652;BME280;66928;52.086;5.240;2023-01-25T07:46:16;103464.00000000001;;;2.61;72.14
50652;BME280;66928;52.086;5.240;2023-01-25T07:47:53;103459.99999999999;;;2.65;71.66
50652;BME280;66928;52.086;5.240;2023-01-25T07:49:29;103461.99999999999;;;2.79;70.97
50652;BME280;66928;52.086;5.240;2023-01-25T07:52:59;103458.0;;;2.62;71.41
50652;BME280;66928;52.086;5.240;2023-01-25T07:54:35;103453.0;;;2.57;71.75
50652;BME280;66928;52.086;5.240;2023-01-25T07:56:11;103456.0;;;2.44;72.3
50652;BME280;66928;52.086;5.240;2023-01-25T07:57:47;103449.0;;;2.44;72.09
50652;BME280;66928;52.086;5.240;2023-01-25T08:01:09;103451.0;;;2.54;71.59
50652;BME280;66928;52.086;5.240;2023-01-25T08:02:48;103448.0;;;2.48;71.24
50652;BME280;66928;52.086;5.240;2023-01-25T08:04:25;103441.00000000001;;;2.27;72.14
50652;BME280;66928;52.086;5.240;2023-01-25T08:07:41;103439.00000000001;;;2.31;72.52
50652;BME280;66928;52.086;5.240;2023-01-25T08:09:19;103433.99999999999;;;2.42;72.47
50652;BME280;66928;52.086;5.240;2023-01-25T08:10:54;103431.0;;;2.44;72.48
50652;BME280;66928;52.086;5.240;2023-01-25T08:12:33;103430.0;;;2.31;72.78
50652;BME280;66928;52.086;5.240;2023-01-25T08:15:52;103433.99999999999;;;2.36;72.63
50652;BME280;66928;52.086;5.240;2023-01-25T08:17:31;103438.00000000001;;;2.29;73.19
50652;BME280;66928;52.086;5.240;2023-01-25T08:19:09;103442.0;;;2.37;73.05
50652;BME280;66928;52.086;5.240;2023-01-25T08:20:46;103441.00000000001;;;2.38;73.06
50652;BME280;66928;52.086;5.240;2023-01-25T08:24:01;103439.00000000001;;;2.34;72.89
50652;BME280;66928;52.086;5.240;2023-01-25T08:25:39;103436.99999999999;;;2.38;72.52
50652;BME280;66928;52.086;5.240;2023-01-25T08:27:15;103440.00000000001;;;2.25;73.25
50652;BME280;66928;52.086;5.240;2023-01-25T08:30:29;103441.00000000001;;;2.36;72.45
50652;BME280;66928;52.086;5.240;2023-01-25T08:32:07;103439.00000000001;;;2.27;72.69
50652;BME280;66928;52.086;5.240;2023-01-25T08:33:45;103444.0;;;2.4;72.69
50652;BME280;66928;52.086;5.240;2023-01-25T08:36:58;103446.0;;;2.34;72.44
50652;BME280;66928;52.086;5.240;2023-01-25T08:38:36;103446.0;;;2.38;72.53
50652;BME280;66928;52.086;5.240;2023-01-25T08:40:18;103444.0;;;2.41;72.47
50652;BME280;66928;52.086;5.240;2023-01-25T08:41:54;103447.0;;;2.37;72.36
50652;BME280;66928;52.086;5.240;2023-01-25T08:45:07;103441.00000000001;;;2.31;72.72
50652;BME280;66928;52.086;5.240;2023-01-25T08:46:45;103442.0;;;2.05;72.83
50652;BME280;66928;52.086;5.240;2023-01-25T08:48:21;103434.99999999999;;;2.27;72.73
50652;BME280;66928;52.086;5.240;2023-01-25T08:51:34;103432.0;;;2.35;72.48
50652;BME280;66928;52.086;5.240;2023-01-25T08:53:10;103424.0;;;2.39;72.77
50652;BME280;66928;52.086;5.240;2023-01-25T08:54:46;103420.0;;;2.42;72.66
50652;BME280;66928;52.086;5.240;2023-01-25T08:56:23;103418.0;;;2.38;72.45
50652;BME280;66928;52.086;5.240;2023-01-25T08:59:35;103417.0;;;2.48;72.3
50652;BME280;66928;52.086;5.240;2023-01-25T09:01:13;103409.99999999999;;;2.46;72.52
50652;BME280;66928;52.086;5.240;2023-01-25T09:02:50;103404.0;;;2.38;72.39
50652;BME280;66928;52.086;5.240;2023-01-25T09:06:04;103408.99999999999;;;2.48;72.31
50652;BME280;66928;52.086;5.240;2023-01-25T09:07:41;103414.00000000001;;;2.5;71.89
50652;BME280;66928;52.086;5.240;2023-01-25T09:09:17;103417.0;;;2.44;71.72
50652;BME280;66928;52.086;5.240;2023-01-25T09:12:30;103416.00000000001;;;2.5;72.3
50652;BME280;66928;52.086;5.240;2023-01-25T09:14:07;103411.99999999999;;;2.42;72.27
50652;BME280;66928;52.086;5.240;2023-01-25T09:15:43;103416.00000000001;;;2.36;71.94
50652;BME280;66928;52.086;5.240;2023-01-25T09:17:20;103415.00000000001;;;2.36;71.86
50652;BME280;66928;52.086;5.240;2023-01-25T09:20:37;103413.00000000001;;;2.34;71.58
50652;BME280;66928;52.086;5.240;2023-01-25T09:22:13;103414.00000000001;;;2.38;72.11
50652;BME280;66928;52.086;5.240;2023-01-25T09:23:51;103409.99999999999;;;2.39;71.47
50652;BME280;66928;52.086;5.240;2023-01-25T09:27:05;103407.0;;;2.36;71.98
50652;BME280;66928;52.086;5.240;2023-01-25T09:28:44;103404.0;;;2.35;71.7
50652;BME280;66928;52.086;5.240;2023-01-25T09:30:21;103406.0;;;2.25;72.11
50652;BME280;66928;52.086;5.240;2023-01-25T09:31:57;103408.99999999999;;;2.31;72.02
50652;BME280;66928;52.086;5.240;2023-01-25T09:35:13;103408.99999999999;;;2.31;71.84
50652;BME280;66928;52.086;5.240;2023-01-25T09:36:49;103408.0;;;2.34;72.12
50652;BME280;66928;52.086;5.240;2023-01-25T09:38:25;103405.0;;;2.33;71.83
50652;BME280;66928;52.086;5.240;2023-01-25T09:41:58;103405.0;;;2.23;72.25
50652;BME280;66928;52.086;5.240;2023-01-25T09:44:57;103395.0;;;2.23;72.08
50652;BME280;66928;52.086;5.240;2023-01-25T09:47:08;103396.0;;;2.25;72.16
50652;BME280;66928;52.086;5.240;2023-01-25T09:48:56;103391.00000000001;;;2.33;71.97
50652;BME280;66928;52.086;5.240;2023-01-25T09:52:57;103390.00000000001;;;2.19;72.33
50652;BME280;66928;52.086;5.240;2023-01-25T09:54:44;103391.00000000001;;;2.19;72.5
50652;BME280;66928;52.086;5.240;2023-01-25T09:56:25;103394.0;;;2.31;71.89
50652;BME280;66928;52.086;5.240;2023-01-25T09:58:03;103392.0;;;2.25;71.99
50652;BME280;66928;52.086;5.240;2023-01-25T09:59:45;103393.0;;;2.36;72.31
50652;BME280;66928;52.086;5.240;2023-01-25T10:01:27;103389.00000000001;;;2.33;72.09
50652;BME280;66928;52.086;5.240;2023-01-25T10:04:58;103390.00000000001;;;2.39;72.37
50652;BME280;66928;52.086;5.240;2023-01-25T10:06:39;103382.0;;;2.36;72.41
50652;BME280;66928;52.086;5.240;2023-01-25T10:08:23;103379.0;;;2.29;72.67
50652;BME280;66928;52.086;5.240;2023-01-25T10:10:07;103374.0;;;2.21;72.53
50652;BME280;66928;52.086;5.240;2023-01-25T10:11:47;103368.0;;;2.29;72.56
50652;BME280;66928;52.086;5.240;2023-01-25T10:15:02;103367.0;;;2.31;72.56
50652;BME280;66928;52.086;5.240;2023-01-25T10:16:58;103361.99999999999;;;2.44;72.16
50652;BME280;66928;52.086;5.240;2023-01-25T10:18:41;103361.99999999999;;;2.39;72.23
50652;BME280;66928;52.086;5.240;2023-01-25T10:20:34;103365.00000000001;;;2.46;72.09
50652;BME280;66928;52.086;5.240;2023-01-25T10:22:18;103358.99999999999;;;2.56;72.03
50652;BME280;66928;52.086;5.240;2023-01-25T10:27:38;103354.0;;;2.54;71.47
50652;BME280;66928;52.086;5.240;2023-01-25T10:29:21;103347.0;;;2.44;71.56
50652;BME280;66928;52.086;5.240;2023-01-25T10:31:00;103348.0;;;2.42;71.78
50652;BME280;66928;52.086;5.240;2023-01-25T10:32:39;103342.0;;;2.34;72.08
50652;BME280;66928;52.086;5.240;2023-01-25T10:35:58;103342.0;;;2.34;71.97
50652;BME280;66928;52.086;5.240;2023-01-25T10:37:37;103338.00000000001;;;2.44;71.95
50652;BME280;66928;52.086;5.240;2023-01-25T10:39:14;103328.0;;;2.39;72.02
50652;BME280;66928;52.086;5.240;2023-01-25T10:42:47;103321.0;;;2.23;72.58
50652;BME280;66928;52.086;5.240;2023-01-25T10:44:38;103320.0;;;2.39;72.36
50652;BME280;66928;52.086;5.240;2023-01-25T10:46:18;103320.0;;;2.36;72.7
50652;BME280;66928;52.086;5.240;2023-01-25T10:48:00;103319.0;;;2.38;72.77
50652;BME280;66928;52.086;5.240;2023-01-25T10:49:41;103317.0;;;2.42;72.67
50652;BME280;66928;52.086;5.240;2023-01-25T10:53:21;103319.0;;;2.34;72.67
50652;BME280;66928;52.086;5.240;2023-01-25T10:55:12;103317.0;;;2.46;72.34
50652;BME280;66928;52.086;5.240;2023-01-25T10:56:51;103313.00000000001;;;2.56;72.55
50652;BME280;66928;52.086;5.240;2023-01-25T10:58:30;103307.0;;;2.5;72.33
50652;BME280;66928;52.086;5.240;2023-01-25T11:02:33;103294.0;;;2.56;71.91
50652;BME280;66928;52.086;5.240;2023-01-25T11:04:23;103290.00000000001;;;2.62;71.62
50652;BME280;66928;52.086;5.240;2023-01-25T11:06:06;103290.00000000001;;;2.46;71.94
50652;BME280;66928;52.086;5.240;2023-01-25T11:09:37;103288.00000000001;;;2.56;71.03
50652;BME280;66928;52.086;5.240;2023-01-25T11:11:33;103283.0;;;2.4;71.63
50652;BME280;66928;52.086;5.240;2023-01-25T11:13:20;103279.0;;;2.57;71.64
50652;BME280;66928;52.086;5.240;2023-01-25T11:15:22;103274.0;;;2.48;71.72
50652;BME280;66928;52.086;5.240;2023-01-25T11:17:02;103268.0;;;2.46;71.59
50652;BME280;66928;52.086;5.240;2023-01-25T11:18:49;103259.99999999999;;;2.46;71.72
50652;BME280;66928;52.086;5.240;2023-01-25T11:22:04;103259.99999999999;;;2.48;71.8
50652;BME280;66928;52.086;5.240;2023-01-25T11:24:00;103258.99999999999;;;2.52;71.91
50652;BME280;66928;52.086;5.240;2023-01-25T11:26:11;103250.0;;;2.42;72.13
50652;BME280;66928;52.086;5.240;2023-01-25T11:27:50;103253.0;;;2.56;72.05
50652;BME280;66928;52.086;5.240;2023-01-25T11:29:27;103249.0;;;2.54;72.16
50652;BME280;66928;52.086;5.240;2023-01-25T11:32:47;103244.0;;;2.48;72.27
50652;BME280;66928;52.086;5.240;2023-01-25T11:34:24;103234.99999999999;;;2.46;72.05
50652;BME280;66928;52.086;5.240;2023-01-25T11:36:19;103222.0;;;2.66;71.83
50652;BME280;66928;52.086;5.240;2023-01-25T11:38:06;103223.0;;;2.5;71.41
50652;BME280;66928;52.086;5.240;2023-01-25T11:39:57;103218.0;;;2.52;71.69
50652;BME280;66928;52.086;5.240;2023-01-25T11:41:48;103209.99999999999;;;2.54;71.86
50652;BME280;66928;52.086;5.240;2023-01-25T11:46:37;103206.0;;;2.31;71.61
50652;BME280;66928;52.086;5.240;2023-01-25T11:48:31;103193.0;;;1.87;72.69
50652;BME280;66928;52.086;5.240;2023-01-25T11:50:22;103192.0;;;1.49;74.69
50652;BME280;66928;52.086;5.240;2023-01-25T11:52:14;103186.99999999999;;;1.54;74.52
50652;BME280;66928;52.086;5.240;2023-01-25T11:56:27;103171.0;;;1.84;73.94
50652;BME280;66928;52.086;5.240;2023-01-25T12:02:23;103149.0;;;2.29;73.08
50652;BME280;66928;52.086;5.240;2023-01-25T12:04:30;103142.0;;;2.42;72.77
50652;BME280;66928;52.086;5.240;2023-01-25T12:06:29;103142.0;;;2.29;72.66
50652;BME280;66928;52.086;5.240;2023-01-25T12:08:19;103136.99999999999;;;2.36;72.78
50652;BME280;66928;52.086;5.240;2023-01-25T12:10:18;103128.0;;;2.35;72.52
50652;BME280;66928;52.086;5.240;2023-01-25T12:12:09;103127.0;;;2.4;72.5
50652;BME280;66928;52.086;5.240;2023-01-25T12:13:52;103125.0;;;2.21;72.58
50652;BME280;66928;52.086;5.240;2023-01-25T12:15:48;103128.0;;;2.31;72.64
50652;BME280;66928;52.086;5.240;2023-01-25T12:18:13;103118.0;;;2.33;72.58
50652;BME280;66928;52.086;5.240;2023-01-25T12:20:25;103119.0;;;2.42;72.55
50652;BME280;66928;52.086;5.240;2023-01-25T12:22:33;103109.99999999999;;;2.31;72.69
50652;BME280;66928;52.086;5.240;2023-01-25T12:24:29;103106.0;;;2.46;71.99
50652;BME280;66928;52.086;5.240;2023-01-25T12:28:07;103092.0;;;2.52;72.14
50652;BME280;66928;52.086;5.240;2023-01-25T12:29:51;103090.00000000001;;;2.37;72.5
50652;BME280;66928;52.086;5.240;2023-01-25T12:33:25;103089.00000000001;;;2.35;72.69
50652;BME280;66928;52.086;5.240;2023-01-25T12:35:20;103084.99999999999;;;2.31;72.55
50652;BME280;66928;52.086;5.240;2023-01-25T12:37:05;103086.99999999999;;;2.23;73.02
50652;BME280;66928;52.086;5.240;2023-01-25T12:38:49;103088.00000000001;;;2.32;72.88
50652;BME280;66928;52.086;5.240;2023-01-25T12:40:39;103080.0;;;2.34;72.91
50652;BME280;66928;52.086;5.240;2023-01-25T12:42:31;103075.0;;;2.25;73.02
50652;BME280;66928;52.086;5.240;2023-01-25T12:45:57;103067.0;;;2.41;72.45
50652;BME280;66928;52.086;5.240;2023-01-25T12:47:38;103059.99999999999;;;2.46;72.62
50652;BME280;66928;52.086;5.240;2023-01-25T12:49:23;103045.0;;;2.48;73.03
50652;BME280;66928;52.086;5.240;2023-01-25T12:51:04;103047.0;;;2.41;73.56
50652;BME280;66928;52.086;5.240;2023-01-25T12:54:27;103033.99999999999;;;2.4;73.25
50652;BME280;66928;52.086;5.240;2023-01-25T12:56:10;103025.0;;;2.44;73.2
50652;BME280;66928;52.086;5.240;2023-01-25T12:58:05;103023.0;;;2.4;73.33
50652;BME280;66928;52.086;5.240;2023-01-25T12:59:56;103021.0;;;2.52;73.47
50652;BME280;66928;52.086;5.240;2023-01-25T13:01:42;103020.0;;;2.44;73.48
50652;BME280;66928;52.086;5.240;2023-01-25T13:03:29;103021.0;;;2.5;73.44
50652;BME280;66928;52.086;5.240;2023-01-25T13:07:09;103018.0;;;2.59;72.91
50652;BME280;66928;52.086;5.240;2023-01-25T13:08:55;103015.00000000001;;;2.62;73.02
50652;BME280;66928;52.086;5.240;2023-01-25T13:10:42;103013.00000000001;;;2.48;73.27
50652;BME280;66928;52.086;5.240;2023-01-25T13:12:20;103017.0;;;2.4;73.61
50652;BME280;66928;52.086;5.240;2023-01-25T13:14:36;103019.0;;;2.33;73.58
50652;BME280;66928;52.086;5.240;2023-01-25T13:16:43;103018.0;;;2.54;73.48
50652;BME280;66928;52.086;5.240;2023-01-25T13:18:35;103016.00000000001;;;2.67;72.83
50652;BME280;66928;52.086;5.240;2023-01-25T13:20:50;103008.99999999999;;;2.65;72.58
50652;BME280;66928;52.086;5.240;2023-01-25T13:22:59;103008.99999999999;;;2.48;72.7
50652;BME280;66928;52.086;5.240;2023-01-25T13:25:05;103003.0;;;2.38;73.47
50652;BME280;66928;52.086;5.240;2023-01-25T13:27:02;103016.00000000001;;;2.38;73.55
50652;BME280;66928;52.086;5.240;2023-01-25T13:28:41;103016.00000000001;;;2.27;73.67
50652;BME280;66928;52.086;5.240;2023-01-25T13:32:11;103014.00000000001;;;2.36;73.27
50652;BME280;66928;52.086;5.240;2023-01-25T13:33:47;103006.0;;;2.52;73.19
50652;BME280;66928;52.086;5.240;2023-01-25T13:35:28;103001.0;;;2.52;73.12
50652;BME280;66928;52.086;5.240;2023-01-25T13:37:15;102997.0;;;2.48;72.66
50652;BME280;66928;52.086;5.240;2023-01-25T13:38:52;102996.0;;;2.57;72.86
50652;BME280;66928;52.086;5.240;2023-01-25T13:42:20;102997.0;;;2.5;72.97
50652;BME280;66928;52.086;5.240;2023-01-25T13:44:20;102992.0;;;2.54;72.88
50652;BME280;66928;52.086;5.240;2023-01-25T13:45:59;102989.00000000001;;;2.46;72.87
50652;BME280;66928;52.086;5.240;2023-01-25T13:47:37;102983.0;;;2.4;73.08
50652;BME280;66928;52.086;5.240;2023-01-25T13:49:20;102982.0;;;2.44;73.03
50652;BME280;66928;52.086;5.240;2023-01-25T13:52:55;102977.0;;;2.56;72.62
50652;BME280;66928;52.086;5.240;2023-01-25T13:54:32;102974.0;;;2.46;73.05
50652;BME280;66928;52.086;5.240;2023-01-25T13:56:24;102977.0;;;2.5;73.33
50652;BME280;66928;52.086;5.240;2023-01-25T13:58:10;102973.0;;;2.39;73.05
50652;BME280;66928;52.086;5.240;2023-01-25T14:03:15;102964.00000000001;;;2.48;72.97
50652;BME280;66928;52.086;5.240;2023-01-25T14:04:53;102958.0;;;2.54;72.97
50652;BME280;66928;52.086;5.240;2023-01-25T14:06:32;102956.0;;;2.44;73.28
50652;BME280;66928;52.086;5.240;2023-01-25T14:08:10;102954.0;;;2.52;73.36
50652;BME280;66928;52.086;5.240;2023-01-25T14:11:25;102955.0;;;2.4;73.3
50652;BME280;66928;52.086;5.240;2023-01-25T14:13:03;102954.0;;;2.54;72.83
50652;BME280;66928;52.086;5.240;2023-01-25T14:14:39;102953.0;;;2.54;72.97
50652;BME280;66928;52.086;5.240;2023-01-25T14:19:20;102954.0;;;2.46;73.16
50652;BME280;66928;52.086;5.240;2023-01-25T14:21:15;102948.0;;;2.5;73.19
50652;BME280;66928;52.086;5.240;2023-01-25T14:22:52;102941.00000000001;;;2.52;73.52
50652;BME280;66928;52.086;5.240;2023-01-25T14:26:16;102941.00000000001;;;2.58;73.19
50652;BME280;66928;52.086;5.240;2023-01-25T14:27:56;102944.0;;;2.62;72.8
50652;BME280;66928;52.086;5.240;2023-01-25T14:29:34;102944.0;;;2.48;72.81
50652;BME280;66928;52.086;5.240;2023-01-25T14:31:19;102946.0;;;2.39;73.0
50652;BME280;66928;52.086;5.240;2023-01-25T14:34:36;102942.0;;;2.29;73.22
50652;BME280;66928;52.086;5.240;2023-01-25T14:36:13;102945.0;;;2.02;73.41
50652;BME280;66928;52.086;5.240;2023-01-25T14:37:50;102945.0;;;1.99;73.83
50652;BME280;66928;52.086;5.240;2023-01-25T14:39:28;102943.0;;;2.23;73.17
50652;BME280;66928;52.086;5.240;2023-01-25T14:42:48;102944.0;;;2.23;72.97
50652;BME280;66928;52.086;5.240;2023-01-25T14:44:25;102946.0;;;2.06;73.16
50652;BME280;66928;52.086;5.240;2023-01-25T14:46:17;102947.0;;;2.23;72.36
50652;BME280;66928;52.086;5.240;2023-01-25T14:47:55;102950.0;;;1.74;73.58
50652;BME280;66928;52.086;5.240;2023-01-25T14:51:13;102946.0;;;2.16;72.73
50652;BME280;66928;52.086;5.240;2023-01-25T14:52:51;102950.0;;;2.19;72.24
50652;BME280;66928;52.086;5.240;2023-01-25T14:54:28;102945.0;;;2.14;72.58
50652;BME280;66928;52.086;5.240;2023-01-25T14:58:03;102944.0;;;2.16;72.94
50652;BME280;66928;52.086;5.240;2023-01-25T14:59:41;102948.0;;;2.12;72.8
50652;BME280;66928;52.086;5.240;2023-01-25T15:01:26;102952.0;;;2.21;72.83
50652;BME280;66928;52.086;5.240;2023-01-25T15:03:14;102949.0;;;2.21;72.88
50652;BME280;66928;52.086;5.240;2023-01-25T15:04:53;102940.00000000001;;;2.29;73.06
50652;BME280;66928;52.086;5.240;2023-01-25T15:08:27;102934.99999999999;;;2.19;73.52
50652;BME280;66928;52.086;5.240;2023-01-25T15:10:15;102941.00000000001;;;2.15;73.44
50652;BME280;66928;52.086;5.240;2023-01-25T15:11:58;102936.99999999999;;;2.21;73.61
50652;BME280;66928;52.086;5.240;2023-01-25T15:13:35;102938.00000000001;;;2.21;73.67
50652;BME280;66928;52.086;5.240;2023-01-25T15:15:20;102939.00000000001;;;2.17;73.87
50652;BME280;66928;52.086;5.240;2023-01-25T15:18:43;102940.00000000001;;;2.16;73.48
50652;BME280;66928;52.086;5.240;2023-01-25T15:20:35;102939.00000000001;;;2.14;73.73
50652;BME280;66928;52.086;5.240;2023-01-25T15:22:13;102933.99999999999;;;2.19;73.36
50652;BME280;66928;52.086;5.240;2023-01-25T15:23:49;102931.0;;;2.17;73.19
50652;BME280;66928;52.086;5.240;2023-01-25T15:25:26;102925.0;;;2.17;73.34
50652;BME280;66928;52.086;5.240;2023-01-25T15:28:39;102919.0;;;2.21;73.22
50652;BME280;66928;52.086;5.240;2023-01-25T15:30:16;102920.0;;;2.27;72.94
50652;BME280;66928;52.086;5.240;2023-01-25T15:31:55;102915.00000000001;;;2.31;72.66
50652;BME280;66928;52.086;5.240;2023-01-25T15:35:11;102908.0;;;2.23;73.33
50652;BME280;66928;52.086;5.240;2023-01-25T15:36:48;102906.0;;;2.25;73.09
50652;BME280;66928;52.086;5.240;2023-01-25T15:38:25;102904.0;;;2.27;73.19
50652;BME280;66928;52.086;5.240;2023-01-25T15:41:37;102908.0;;;2.27;73.16
50652;BME280;66928;52.086;5.240;2023-01-25T15:43:15;102904.0;;;2.31;73.27
50652;BME280;66928;52.086;5.240;2023-01-25T15:46:29;102908.0;;;2.31;73.3
50652;BME280;66928;52.086;5.240;2023-01-25T15:49:49;102905.0;;;2.33;73.56
50652;BME280;66928;52.086;5.240;2023-01-25T15:51:25;102908.0;;;2.29;73.39
50652;BME280;66928;52.086;5.240;2023-01-25T15:53:01;102900.0;;;2.23;73.72
50652;BME280;66928;52.086;5.240;2023-01-25T15:56:16;102899.0;;;1.87;74.41
50652;BME280;66928;52.086;5.240;2023-01-25T15:57:54;102901.0;;;1.99;74.3
50652;BME280;66928;52.086;5.240;2023-01-25T15:59:30;102899.0;;;1.73;75.27
50652;BME280;66928;52.086;5.240;2023-01-25T16:01:08;102909.99999999999;;;1.9;74.87
50652;BME280;66928;52.086;5.240;2023-01-25T16:04:24;102908.99999999999;;;1.9;74.36
50652;BME280;66928;52.086;5.240;2023-01-25T16:06:04;102915.00000000001;;;1.97;74.33
50652;BME280;66928;52.086;5.240;2023-01-25T16:07:58;102914.00000000001;;;2.12;73.97
50652;BME280;66928;52.086;5.240;2023-01-25T16:09:34;102915.00000000001;;;1.98;74.24
50652;BME280;66928;52.086;5.240;2023-01-25T16:12:47;102908.0;;;2.04;74.56
50652;BME280;66928;52.086;5.240;2023-01-25T16:14:29;102900.0;;;2.13;74.22
50652;BME280;66928;52.086;5.240;2023-01-25T16:16:08;102904.0;;;2.13;74.44
50652;BME280;66928;52.086;5.240;2023-01-25T16:17:52;102903.0;;;2.16;74.27
50652;BME280;66928;52.086;5.240;2023-01-25T16:21:08;102909.99999999999;;;2.0;75.05
50652;BME280;66928;52.086;5.240;2023-01-25T16:22:45;102919.0;;;1.96;75.11
50652;BME280;66928;52.086;5.240;2023-01-25T16:24:22;102919.0;;;2.15;74.52
50652;BME280;66928;52.086;5.240;2023-01-25T16:27:35;102919.0;;;2.07;74.83
50652;BME280;66928;52.086;5.240;2023-01-25T16:29:12;102917.0;;;1.75;76.14
50652;BME280;66928;52.086;5.240;2023-01-25T16:30:48;102915.00000000001;;;1.83;75.91
50652;BME280;66928;52.086;5.240;2023-01-25T16:32:25;102909.99999999999;;;1.44;77.33
50652;BME280;66928;52.086;5.240;2023-01-25T16:35:38;102908.99999999999;;;1.02;78.61
50652;BME280;66928;52.086;5.240;2023-01-25T16:37:15;102896.0;;;1.42;77.45
50652;BME280;66928;52.086;5.240;2023-01-25T16:38:52;102883.0;;;1.73;76.08
50652;BME280;66928;52.086;5.240;2023-01-25T16:42:11;102879.0;;;1.97;75.16
50652;BME280;66928;52.086;5.240;2023-01-25T16:43:47;102874.0;;;2.1;75.02
50652;BME280;66928;52.086;5.240;2023-01-25T16:45:24;102878.0;;;2.09;74.92
50652;BME280;66928;52.086;5.240;2023-01-25T16:47:01;102870.0;;;2.16;74.97
50652;BME280;66928;52.086;5.240;2023-01-25T16:50:15;102868.0;;;2.21;74.97
50652;BME280;66928;52.086;5.240;2023-01-25T16:51:52;102858.99999999999;;;2.19;74.88
50652;BME280;66928;52.086;5.240;2023-01-25T16:53:29;102855.0;;;2.17;75.19
50652;BME280;66928;52.086;5.240;2023-01-25T16:56:43;102851.0;;;2.25;75.03
50652;BME280;66928;52.086;5.240;2023-01-25T16:58:20;102841.00000000001;;;2.27;74.88
50652;BME280;66928;52.086;5.240;2023-01-25T16:59:57;102842.0;;;2.19;75.25
50652;BME280;66928;52.086;5.240;2023-01-25T17:03:10;102838.00000000001;;;2.27;74.97
50652;BME280;66928;52.086;5.240;2023-01-25T17:04:46;102829.0;;;2.39;74.67
50652;BME280;66928;52.086;5.240;2023-01-25T17:06:24;102824.0;;;2.21;75.16
50652;BME280;66928;52.086;5.240;2023-01-25T17:08:03;102815.00000000001;;;2.29;74.8
50652;BME280;66928;52.086;5.240;2023-01-25T17:11:17;102805.0;;;2.16;75.0
50652;BME280;66928;52.086;5.240;2023-01-25T17:12:54;102799.0;;;2.34;74.72
50652;BME280;66928;52.086;5.240;2023-01-25T17:14:30;102797.0;;;2.21;75.19
50652;BME280;66928;52.086;5.240;2023-01-25T17:17:44;102788.00000000001;;;2.19;74.94
50652;BME280;66928;52.086;5.240;2023-01-25T17:19:21;102780.0;;;2.25;74.97
50652;BME280;66928;52.086;5.240;2023-01-25T17:20:58;102770.0;;;2.15;74.97
50652;BME280;66928;52.086;5.240;2023-01-25T17:22:36;102770.0;;;2.23;75.08
50652;BME280;66928;52.086;5.240;2023-01-25T17:25:51;102758.0;;;2.04;75.42
50652;BME280;66928;52.086;5.240;2023-01-25T17:27:27;102754.0;;;2.17;75.69
50652;BME280;66928;52.086;5.240;2023-01-25T17:29:04;102751.0;;;2.29;75.22
50652;BME280;66928;52.086;5.240;2023-01-25T17:32:16;102747.0;;;2.16;75.5